Time;durP1;ratioP1;P1;durP2;ratioP2;P2;SDS_P1;SDS_P2;PMS_P1;PMS_P2;Temp;Humidity;BMP_temperature;BMP_pressure;BME280_temperature;BME280_humidity;BME280_pressure;Samples;Min_cycle;Max_cycle;Signal;HPM_P1;HPM_P2
2022/03/12 00:02:00;;;;;;;10.18;4.40;;;;;;;2.88;52.31;101257.69;5281096;28;20397;-77
2022/03/12 00:04:30;;;;;;;12.65;4.32;;;;;;;2.88;52.00;101252.53;5280766;28;20035;-77
2022/03/12 00:07:09;;;;;;;8.45;3.88;;;;;;;2.87;51.70;101261.13;5277513;28;20472;-77
2022/03/12 00:09:39;;;;;;;8.13;4.20;;;;;;;2.80;52.24;101261.97;5276404;28;20031;-76
2022/03/12 00:12:14;;;;;;;9.02;4.30;;;;;;;2.85;51.87;101265.41;5268985;28;20032;-78
2022/03/12 00:14:48;;;;;;;7.72;3.70;;;;;;;2.77;51.78;101266.22;5272990;28;20028;-77
2022/03/12 00:17:18;;;;;;;7.32;4.00;;;;;;;2.71;52.27;101279.94;5262286;28;20046;-77
2022/03/12 00:19:49;;;;;;;6.53;3.75;;;;;;;2.70;52.07;101273.06;5280229;28;20020;-76
2022/03/12 00:22:20;;;;;;;8.68;3.88;;;;;;;2.55;52.33;101269.50;5252788;28;20165;-77
2022/03/12 00:24:51;;;;;;;8.98;4.40;;;;;;;2.68;51.57;101273.91;5265518;28;20543;-77
2022/03/12 00:27:21;;;;;;;10.00;4.10;;;;;;;2.63;51.93;101265.25;5279484;28;20115;-78
2022/03/12 00:29:54;;;;;;;9.20;3.88;;;;;;;2.62;52.14;101266.13;5284074;28;20172;-77
2022/03/12 00:32:24;;;;;;;11.80;3.92;;;;;;;2.48;52.34;101260.00;5275296;28;20043;-77
2022/03/12 00:34:55;;;;;;;8.85;3.92;;;;;;;2.49;52.47;101269.47;5275423;28;20020;-77
2022/03/12 00:37:26;;;;;;;9.07;4.03;;;;;;;2.51;52.68;101275.50;5260871;28;20042;-78
2022/03/12 00:39:56;;;;;;;8.68;3.95;;;;;;;2.41;52.42;101263.38;5273073;28;20492;-78
2022/03/12 00:42:27;;;;;;;6.80;3.72;;;;;;;2.42;52.45;101270.25;5285453;28;20023;-77
2022/03/12 00:44:58;;;;;;;10.40;4.00;;;;;;;2.37;52.56;101271.94;5275318;28;20031;-77
2022/03/12 00:47:28;;;;;;;11.30;4.60;;;;;;;2.40;52.83;101264.22;5278606;28;20115;-77
2022/03/12 00:49:59;;;;;;;7.40;3.55;;;;;;;2.33;52.99;101268.47;5268094;28;20040;-78
2022/03/12 00:52:29;;;;;;;11.27;4.55;;;;;;;2.28;52.89;101266.69;5251910;28;20035;-78
2022/03/12 00:54:59;;;;;;;8.07;3.85;;;;;;;2.20;53.19;101268.38;5278994;28;20037;-78
2022/03/12 00:57:30;;;;;;;9.85;4.05;;;;;;;2.24;52.73;101260.69;5277713;28;20059;-76
2022/03/12 01:00:01;;;;;;;11.48;3.97;;;;;;;2.21;52.93;101264.94;5278997;28;20047;-77
2022/03/12 01:02:31;;;;;;;8.80;3.55;;;;;;;2.16;53.40;101274.34;5282325;28;20056;-78
2022/03/12 01:05:01;;;;;;;11.65;4.55;;;;;;;2.11;53.58;101278.56;5280319;28;20052;-77
2022/03/12 01:07:32;;;;;;;7.50;3.53;;;;;;;2.05;53.75;101279.41;5278496;28;20028;-77
2022/03/12 01:10:03;;;;;;;12.15;4.50;;;;;;;1.99;53.78;101286.22;5279146;28;20056;-77
2022/03/12 01:12:33;;;;;;;10.18;4.07;;;;;;;2.02;53.50;101274.19;5275753;28;20488;-78
2022/03/12 01:15:06;;;;;;;9.52;4.22;;;;;;;1.98;53.91;101271.59;5264427;28;20057;-78
2022/03/12 01:17:38;;;;;;;9.93;4.05;;;;;;;1.89;54.32;101274.06;5263865;28;20028;-77
2022/03/12 01:20:10;;;;;;;14.00;4.15;;;;;;;1.83;53.80;101274.00;5247988;28;20024;-77
2022/03/12 01:22:41;;;;;;;10.55;4.05;;;;;;;1.79;54.33;101275.69;5267690;28;20024;-77
2022/03/12 01:25:12;;;;;;;8.93;4.15;;;;;;;1.81;54.10;101278.28;5276655;28;20077;-77
2022/03/12 01:27:42;;;;;;;9.25;4.30;;;;;;;1.73;54.07;101279.91;5278809;28;20023;-77
2022/03/12 01:30:13;;;;;;;12.00;4.30;;;;;;;1.70;54.55;101277.28;5275702;28;20126;-77
2022/03/12 01:32:44;;;;;;;7.25;3.90;;;;;;;1.70;54.25;101282.44;5277490;28;20469;-77
2022/03/12 01:35:14;;;;;;;9.52;4.10;;;;;;;1.78;54.79;101273.94;5273818;28;20026;-77
2022/03/12 01:37:44;;;;;;;8.50;4.13;;;;;;;1.62;54.46;101276.34;5273925;28;20126;-77
2022/03/12 01:40:15;;;;;;;7.88;3.80;;;;;;;1.63;54.55;101262.63;5270917;28;20032;-77
2022/03/12 01:42:46;;;;;;;8.68;4.13;;;;;;;1.63;54.57;101265.22;5275877;28;20093;-77
2022/03/12 01:45:24;;;;;;;9.00;3.97;;;;;;;1.66;53.83;101265.25;5280107;28;20040;-78
2022/03/12 01:48:02;;;;;;;9.75;3.88;;;;;;;1.70;54.09;101254.09;5269880;28;20015;-77
2022/03/12 01:50:35;;;;;;;7.57;3.70;;;;;;;1.75;53.81;101246.44;5273201;28;20042;-78
2022/03/12 01:53:10;;;;;;;10.50;4.00;;;;;;;1.71;53.65;101240.38;5284012;28;20024;-77
2022/03/12 01:55:40;;;;;;;8.93;3.80;;;;;;;1.77;53.45;101245.59;5287196;28;20036;-78
2022/03/12 01:58:10;;;;;;;8.15;3.80;;;;;;;1.67;53.41;101241.22;5284720;28;20095;-77
2022/03/12 02:00:49;;;;;;;7.75;3.47;;;;;;;1.64;53.50;101238.59;5273013;28;20493;-77
2022/03/12 02:03:29;;;;;;;9.32;3.70;;;;;;;1.72;53.79;101230.97;5280741;28;20520;-77
2022/03/12 02:05:59;;;;;;;8.63;3.97;;;;;;;1.65;53.48;101245.47;5280723;28;20036;-77
2022/03/12 02:08:29;;;;;;;8.63;3.33;;;;;;;1.55;54.06;101242.78;5280342;28;20035;-78
2022/03/12 02:11:00;;;;;;;11.43;4.13;;;;;;;1.47;54.48;101240.13;5278598;28;20030;-77
2022/03/12 02:13:31;;;;;;;8.50;4.03;;;;;;;1.52;54.21;101240.16;5277647;28;20372;-77
2022/03/12 02:16:07;;;;;;;10.32;3.72;;;;;;;1.51;54.23;101241.00;5282386;28;20059;-77
2022/03/12 02:18:39;;;;;;;6.82;3.25;;;;;;;1.55;53.67;101232.50;5283489;28;20032;-78
2022/03/12 02:21:09;;;;;;;6.28;3.42;;;;;;;1.66;53.22;101239.47;5281534;28;20038;-77
2022/03/12 02:23:45;;;;;;;7.07;3.30;;;;;;;1.51;53.63;101244.47;5278705;28;20043;-77
2022/03/12 02:26:15;;;;;;;6.80;3.50;;;;;;;1.57;53.48;101230.78;5280886;28;20106;-76
2022/03/12 02:28:45;;;;;;;8.25;3.85;;;;;;;1.51;53.78;101231.59;5281498;28;21347;-77
2022/03/12 02:31:16;;;;;;;7.40;3.30;;;;;;;1.42;53.83;101231.47;5269369;28;20028;-77
2022/03/12 02:33:47;;;;;;;13.65;3.50;;;;;;;1.33;54.77;101235.66;5282849;28;20020;-77
2022/03/12 02:36:26;;;;;;;10.35;3.65;;;;;;;1.19;55.54;101230.34;5297141;22;20083;-76
2022/03/12 02:38:57;;;;;;;9.32;3.63;;;;;;;1.06;55.25;101233.59;5247414;28;20059;-76
2022/03/12 02:41:27;;;;;;;6.78;3.20;;;;;;;1.28;54.21;101217.59;5248215;28;20059;-76
2022/03/12 02:43:58;;;;;;;9.68;3.38;;;;;;;1.43;53.43;101228.03;5250966;28;20555;-76
2022/03/12 02:46:30;;;;;;;8.80;3.28;;;;;;;1.50;52.68;101219.56;5237521;28;20670;-76
2022/03/12 02:49:01;;;;;;;8.30;3.45;;;;;;;1.48;53.13;101218.69;5231771;28;20021;-76
2022/03/12 02:51:34;;;;;;;7.30;3.88;;;;;;;1.51;52.71;101207.53;5239645;28;20043;-76
2022/03/12 02:54:04;;;;;;;7.95;3.40;;;;;;;1.53;52.71;101209.28;5234147;28;20074;-76
2022/03/12 02:56:35;;;;;;;9.05;3.33;;;;;;;1.45;53.36;101207.47;5237843;28;20032;-76
2022/03/12 02:59:09;;;;;;;7.03;3.15;;;;;;;1.54;52.36;101194.72;5232962;28;20057;-76
2022/03/12 03:01:40;;;;;;;7.95;3.05;;;;;;;1.57;51.99;101207.63;5233950;28;20028;-76
2022/03/12 03:04:10;;;;;;;7.28;3.80;;;;;;;1.47;53.07;101206.66;5236040;28;20027;-76
2022/03/12 03:06:42;;;;;;;7.25;3.50;;;;;;;1.51;52.49;101210.09;5237277;28;20025;-76
2022/03/12 03:09:13;;;;;;;9.55;2.95;;;;;;;1.43;52.69;101204.88;5232062;28;20472;-76
2022/03/12 03:11:44;;;;;;;7.28;3.53;;;;;;;1.52;52.29;101207.56;5230611;28;20028;-76
2022/03/12 03:14:15;;;;;;;6.50;3.22;;;;;;;1.39;52.55;101200.53;5233494;28;20051;-76
2022/03/12 03:16:50;;;;;;;7.43;3.30;;;;;;;1.30;53.18;101209.88;5232364;28;20046;-76
2022/03/12 03:19:25;;;;;;;10.57;3.63;;;;;;;1.25;53.37;101217.53;5237692;28;20020;-76
2022/03/12 03:21:57;;;;;;;7.60;3.63;;;;;;;1.26;53.22;101211.53;5242517;28;20033;-76
2022/03/12 03:24:27;;;;;;;7.10;3.13;;;;;;;1.31;52.83;101199.59;5230568;28;20094;-76
2022/03/12 03:27:00;;;;;;;8.57;3.30;;;;;;;1.35;53.20;101192.75;5234716;28;20502;-76
2022/03/12 03:29:32;;;;;;;6.43;3.03;;;;;;;1.34;52.68;101203.91;5233120;28;20040;-76
2022/03/12 03:32:02;;;;;;;6.65;3.33;;;;;;;1.30;52.90;101204.72;5239735;28;20035;-76
2022/03/12 03:34:33;;;;;;;6.45;3.10;;;;;;;1.30;52.63;101207.28;5232919;28;20032;-76
2022/03/12 03:37:04;;;;;;;7.80;3.20;;;;;;;1.38;52.27;101197.97;5252775;28;20059;-76
2022/03/12 03:39:34;;;;;;;8.70;3.60;;;;;;;1.40;52.11;101204.84;5251982;28;20035;-76
2022/03/12 03:42:04;;;;;;;9.43;3.88;;;;;;;1.46;51.54;101191.16;5259100;28;20028;-76
2022/03/12 03:44:35;;;;;;;7.22;2.97;;;;;;;1.48;51.59;101177.47;5254173;28;20565;-76
2022/03/12 03:47:05;;;;;;;6.80;3.38;;;;;;;1.46;51.66;101181.75;5252820;28;20106;-76
2022/03/12 03:49:36;;;;;;;6.32;2.95;;;;;;;1.48;51.54;101176.59;5252332;28;20024;-76
2022/03/12 03:52:07;;;;;;;6.97;2.80;;;;;;;1.59;50.68;101183.59;5256518;28;20028;-76
2022/03/12 03:54:39;;;;;;;7.50;2.70;;;;;;;1.68;50.17;101167.34;5239191;28;20024;-76
2022/03/12 03:57:15;;;;;;;8.75;3.15;;;;;;;1.66;50.13;101184.50;5235351;28;20032;-75
2022/03/12 03:59:45;;;;;;;9.10;3.22;;;;;;;1.56;50.94;101193.84;5253291;28;20564;-75
2022/03/12 04:02:15;;;;;;;7.30;3.28;;;;;;;1.54;50.91;101190.41;5252489;28;20032;-75
2022/03/12 04:04:48;;;;;;;7.03;3.22;;;;;;;1.47;50.87;101191.19;5243366;28;20032;-76
2022/03/12 04:07:18;;;;;;;5.05;3.00;;;;;;;1.55;50.40;101192.13;5255673;28;20028;-76
2022/03/12 04:09:49;;;;;;;6.35;2.88;;;;;;;1.59;50.37;101186.16;5250370;28;20024;-76
2022/03/12 04:12:19;;;;;;;8.15;2.97;;;;;;;1.64;49.34;101194.81;5251375;28;20042;-76
2022/03/12 04:14:50;;;;;;;6.28;2.55;;;;;;;1.58;50.04;101184.44;5251707;28;20031;-76
2022/03/12 04:17:21;;;;;;;6.95;2.97;;;;;;;1.54;49.78;101185.25;5253700;28;20096;-76
2022/03/12 04:19:51;;;;;;;5.82;3.00;;;;;;;1.56;50.30;101196.44;5251496;28;20056;-76
2022/03/12 04:22:22;;;;;;;9.32;3.20;;;;;;;1.56;49.70;101188.72;5253837;28;20042;-76
2022/03/12 04:24:54;;;;;;;6.90;3.10;;;;;;;1.58;49.61;101186.16;5250823;28;20725;-76
2022/03/12 04:27:24;;;;;;;6.50;2.97;;;;;;;1.55;49.93;101197.28;5254429;28;20027;-76
2022/03/12 04:29:55;;;;;;;7.15;3.00;;;;;;;1.65;49.34;101204.28;5251041;28;20480;-76
2022/03/12 04:32:25;;;;;;;6.88;3.17;;;;;;;1.60;49.40;101208.50;5254366;28;20479;-76
2022/03/12 04:34:55;;;;;;;7.68;2.97;;;;;;;1.54;49.72;101218.72;5248859;28;20111;-76
2022/03/12 04:37:26;;;;;;;7.00;2.80;;;;;;;1.50;50.22;101213.53;5251553;28;20559;-76
2022/03/12 04:39:56;;;;;;;5.85;2.88;;;;;;;1.31;51.01;101212.47;5247129;28;20028;-76
2022/03/12 04:42:27;;;;;;;8.52;2.72;;;;;;;1.27;50.70;101220.97;5251611;28;20024;-76
2022/03/12 04:44:57;;;;;;;10.32;3.50;;;;;;;1.19;51.44;101208.88;5250802;28;20028;-76
2022/03/12 04:47:27;;;;;;;7.13;2.97;;;;;;;1.09;52.05;101223.34;5251715;28;20496;-76
2022/03/12 04:49:57;;;;;;;7.65;2.80;;;;;;;1.02;52.67;101229.25;5249983;28;20048;-76
2022/03/12 04:52:29;;;;;;;7.50;2.90;;;;;;;0.95;52.56;101230.03;5254048;28;20570;-76
2022/03/12 04:54:59;;;;;;;6.72;3.20;;;;;;;0.84;53.31;101221.31;5253073;28;20028;-76
2022/03/12 04:57:29;;;;;;;6.50;2.90;;;;;;;0.88;52.81;101228.19;5251863;28;20032;-76
2022/03/12 05:00:10;;;;;;;7.57;3.15;;;;;;;0.87;52.67;101234.19;5250404;28;20543;-76
2022/03/12 05:02:41;;;;;;;7.18;3.20;;;;;;;0.85;52.95;101230.75;5253206;28;20028;-76
2022/03/12 05:05:13;;;;;;;6.53;3.03;;;;;;;0.94;51.85;101223.16;5247854;28;20086;-76
2022/03/12 05:07:44;;;;;;;9.95;3.03;;;;;;;1.00;51.70;101236.09;5251800;28;20097;-76
2022/03/12 05:10:17;;;;;;;4.95;2.63;;;;;;;0.94;52.18;101230.88;5246429;28;20023;-76
2022/03/12 05:12:50;;;;;;;6.45;2.88;;;;;;;1.01;51.43;101235.25;5252757;28;20016;-76
2022/03/12 05:15:21;;;;;;;7.57;3.30;;;;;;;0.99;51.35;101234.38;5250833;28;20028;-76
2022/03/12 05:17:51;;;;;;;9.23;3.22;;;;;;;0.99;51.93;101236.06;5253308;28;20042;-76
2022/03/12 05:20:26;;;;;;;6.10;2.78;;;;;;;1.01;51.63;101231.78;5254393;28;20097;-76
2022/03/12 05:22:57;;;;;;;8.23;3.00;;;;;;;0.92;51.51;101236.84;5236022;28;20111;-76
2022/03/12 05:25:29;;;;;;;5.43;2.72;;;;;;;0.97;51.36;101236.06;5258080;28;20560;-76
2022/03/12 05:27:59;;;;;;;6.28;2.95;;;;;;;0.84;52.20;101247.03;5254662;28;20024;-76
2022/03/12 05:30:30;;;;;;;8.63;2.97;;;;;;;0.86;52.40;101244.47;5258214;28;20031;-76
2022/03/12 05:33:00;;;;;;;5.72;2.65;;;;;;;0.87;52.04;101244.50;5257432;28;20032;-76
2022/03/12 05:35:32;;;;;;;6.25;2.88;;;;;;;0.91;51.58;101250.53;5251575;28;20056;-76
2022/03/12 05:38:02;;;;;;;7.20;3.10;;;;;;;0.86;52.56;101253.06;5255010;28;20453;-76
2022/03/12 05:40:38;;;;;;;7.82;3.03;;;;;;;0.78;52.82;101259.81;5251894;28;20107;-76
2022/03/12 05:43:13;;;;;;;7.78;3.00;;;;;;;0.73;53.17;101261.41;5255216;28;20501;-76
2022/03/12 05:45:47;;;;;;;;;;;;;;;0.81;52.46;101259.84;5256067;28;20036;-76
2022/03/12 05:48:17;;;;;;;7.40;2.60;;;;;;;0.79;52.41;101261.53;5254109;28;20433;-75
2022/03/12 05:50:49;;;;;;;6.78;2.67;;;;;;;0.86;52.19;101260.75;5255106;28;20107;-76
2022/03/12 05:53:19;;;;;;;7.25;2.80;;;;;;;0.93;51.53;101252.28;5256471;28;20056;-76
2022/03/12 05:55:49;;;;;;;4.85;2.45;;;;;;;0.99;51.54;101260.09;5254278;28;20055;-75
2022/03/12 05:58:21;;;;;;;4.95;2.50;;;;;;;0.99;51.32;101267.81;5256539;28;20026;-76
2022/03/12 06:00:54;;;;;;;5.88;2.67;;;;;;;1.02;51.47;101255.00;5254106;28;20035;-76
2022/03/12 06:03:24;;;;;;;5.75;2.50;;;;;;;1.05;51.34;101256.75;5258058;28;20694;-76
2022/03/12 06:05:56;;;;;;;7.18;2.80;;;;;;;1.10;50.93;101255.09;5249799;28;20021;-75
2022/03/12 06:08:28;;;;;;;5.18;2.75;;;;;;;1.12;51.25;101262.00;5255462;28;20050;-76
2022/03/12 06:10:58;;;;;;;15.73;2.80;;;;;;;1.18;51.04;101266.34;5249328;28;20020;-76
2022/03/12 06:13:29;;;;;;;6.75;2.80;;;;;;;1.27;50.58;101276.75;5257236;28;20123;-76
2022/03/12 06:16:02;;;;;;;6.22;2.47;;;;;;;1.30;50.88;101277.69;5253614;28;20103;-76
2022/03/12 06:18:35;;;;;;;5.45;2.38;;;;;;;1.35;50.43;101285.44;5256699;28;20081;-76
2022/03/12 06:21:06;;;;;;;6.13;2.75;;;;;;;1.43;50.33;101276.97;5254063;28;20047;-76
2022/03/12 06:23:36;;;;;;;6.05;2.58;;;;;;;1.56;50.12;101288.28;5255911;28;20032;-76
2022/03/12 06:26:10;;;;;;;7.40;2.75;;;;;;;1.62;50.17;101291.81;5254242;28;20478;-76
2022/03/12 06:28:43;;;;;;;10.90;3.05;;;;;;;1.76;49.53;101290.22;5255161;28;20059;-76
2022/03/12 06:31:14;;;;;;;6.10;2.53;;;;;;;1.89;48.63;101292.09;5254629;28;20373;-76
2022/03/12 06:33:45;;;;;;;7.95;3.08;;;;;;;2.03;48.53;101306.00;5255855;28;20024;-76
2022/03/12 06:36:16;;;;;;;7.70;3.03;;;;;;;2.16;48.25;101297.56;5250821;28;20024;-76
2022/03/12 06:38:46;;;;;;;8.45;2.53;;;;;;;2.27;47.30;101295.91;5252892;28;20084;-76
2022/03/12 06:41:20;;;;;;;5.38;2.60;;;;;;;2.33;48.06;101314.03;5250889;28;20431;-76
2022/03/12 06:43:50;;;;;;;5.70;2.72;;;;;;;2.52;47.43;101290.97;5252943;28;20073;-76
2022/03/12 06:46:21;;;;;;;6.65;2.75;;;;;;;2.64;46.22;101287.63;5255073;28;20028;-76
2022/03/12 06:48:51;;;;;;;7.05;2.72;;;;;;;2.74;46.48;101294.59;5258877;28;20028;-76
2022/03/12 06:51:22;;;;;;;5.43;2.95;;;;;;;2.87;44.90;101283.50;5252420;28;20497;-76
2022/03/12 06:53:55;;;;;;;6.70;2.80;;;;;;;2.95;44.77;101290.44;5255566;28;20512;-76
2022/03/12 06:56:25;;;;;;;8.70;2.70;;;;;;;3.04;44.87;101289.66;5250509;28;20127;-76
2022/03/12 06:58:56;;;;;;;4.32;2.08;;;;;;;3.11;45.20;101293.97;5254684;28;20107;-76
2022/03/12 07:01:27;;;;;;;5.85;2.80;;;;;;;3.15;45.17;101303.47;5251831;28;20055;-76
2022/03/12 07:03:57;;;;;;;5.38;2.78;;;;;;;3.24;45.06;101308.69;5253263;28;20032;-76
2022/03/12 07:06:27;;;;;;;7.15;2.50;;;;;;;3.40;45.32;101310.50;5250945;28;20031;-76
2022/03/12 07:08:57;;;;;;;5.55;2.55;;;;;;;3.42;45.38;101308.78;5250435;28;20028;-76
2022/03/12 07:11:29;;;;;;;7.80;2.63;;;;;;;3.47;45.04;101299.34;5249807;28;20078;-76
2022/03/12 07:13:59;;;;;;;6.40;2.78;;;;;;;3.48;43.95;101301.06;5253713;28;20074;-76
2022/03/12 07:16:30;;;;;;;7.00;3.00;;;;;;;3.55;44.16;101306.25;5253484;28;20446;-76
2022/03/12 07:19:01;;;;;;;5.72;2.78;;;;;;;3.65;44.31;101308.88;5252378;28;20050;-76
2022/03/12 07:21:33;;;;;;;7.15;2.47;;;;;;;3.82;44.66;101314.97;5252632;28;20509;-76
2022/03/12 07:24:03;;;;;;;5.65;2.33;;;;;;;3.88;44.23;101315.00;5254869;28;20538;-76
2022/03/12 07:26:34;;;;;;;5.38;2.78;;;;;;;4.06;43.77;101301.25;5254253;28;20036;-76
2022/03/12 07:29:05;;;;;;;6.65;2.47;;;;;;;4.18;43.68;101297.00;5252049;28;20107;-76
2022/03/12 07:31:37;;;;;;;6.63;2.67;;;;;;;4.86;42.98;101305.66;5252664;28;20039;-76
2022/03/12 07:34:08;;;;;;;5.47;2.60;;;;;;;7.15;39.76;101285.31;5254111;28;20017;-77
2022/03/12 07:36:38;;;;;;;5.32;2.65;;;;;;;8.39;38.24;101287.16;5254503;28;20039;-76
2022/03/12 07:39:08;;;;;;;8.43;3.25;;;;;;;8.50;37.38;101293.06;5252075;28;20023;-77
2022/03/12 07:41:39;;;;;;;6.35;2.88;;;;;;;8.04;37.13;101296.34;5253073;28;20028;-76
2022/03/12 07:44:09;;;;;;;6.03;2.60;;;;;;;8.66;37.14;101294.56;5232718;28;20052;-76
2022/03/12 07:46:39;;;;;;;6.07;2.72;;;;;;;8.93;37.19;101290.63;5253112;28;20019;-79
2022/03/12 07:49:10;;;;;;;5.55;2.47;;;;;;;9.65;37.06;101290.94;5251173;28;20505;-76
2022/03/12 07:51:43;;;;;;;5.43;2.95;;;;;;;9.58;37.38;101293.69;5255256;28;20024;-77
2022/03/12 07:54:15;;;;;;;5.50;2.90;;;;;;;9.80;36.78;101289.78;5250800;28;20063;-76
2022/03/12 07:56:45;;;;;;;5.72;2.78;;;;;;;9.95;35.01;101299.88;5252951;28;20028;-76
2022/03/12 07:59:16;;;;;;;7.47;3.30;;;;;;;10.50;34.89;101290.81;5254490;28;20397;-77
2022/03/12 08:01:46;;;;;;;6.50;2.75;;;;;;;10.79;34.98;101290.09;5232398;28;20115;-76
2022/03/12 08:04:17;;;;;;;4.90;2.33;;;;;;;11.04;35.04;101285.06;5256398;28;20545;-76
2022/03/12 08:06:49;;;;;;;5.75;2.60;;;;;;;10.04;35.29;101305.81;5252901;28;20655;-76
2022/03/12 08:09:19;;;;;;;5.60;2.50;;;;;;;8.22;36.44;101298.72;5248931;28;20409;-77
2022/03/12 08:11:49;;;;;;;16.38;3.25;;;;;;;8.34;36.33;101307.22;5248179;28;20036;-77
2022/03/12 08:14:22;;;;;;;6.03;2.72;;;;;;;9.34;36.15;101297.66;5253969;28;20443;-77
2022/03/12 08:16:53;;;;;;;4.78;2.55;;;;;;;9.01;36.35;101309.59;5252777;28;20031;-77
2022/03/12 08:19:24;;;;;;;4.63;2.45;;;;;;;8.92;37.48;101318.41;5251728;28;20512;-77
2022/03/12 08:21:58;;;;;;;6.15;2.83;;;;;;;8.93;37.20;101308.88;5251110;28;20074;-77
2022/03/12 08:24:28;;;;;;;5.95;2.70;;;;;;;8.37;37.28;101312.38;5251775;28;20032;-77
2022/03/12 08:26:59;;;;;;;4.80;2.53;;;;;;;8.71;38.31;101316.19;5250853;28;20130;-77
2022/03/12 08:29:29;;;;;;;5.13;2.38;;;;;;;8.46;38.68;101311.38;5254788;28;20034;-77
2022/03/12 08:32:00;;;;;;;10.73;2.90;;;;;;;8.76;39.21;101318.72;5250877;28;20042;-77
2022/03/12 08:34:30;;;;;;;4.65;2.45;;;;;;;8.04;39.00;101322.38;5252629;28;20293;-77
2022/03/12 08:37:03;;;;;;;5.33;2.80;;;;;;;8.75;39.14;101310.03;5244091;28;20043;-77
2022/03/12 08:39:34;;;;;;;5.45;2.70;;;;;;;8.72;38.53;101315.28;5230930;28;20884;-77
2022/03/12 08:42:05;;;;;;;7.55;2.90;;;;;;;8.31;39.18;101309.88;5243924;28;20565;-77
2022/03/12 08:44:37;;;;;;;5.60;2.92;;;;;;;8.78;39.15;101307.41;5250115;28;20028;-76
2022/03/12 08:47:07;;;;;;;5.03;2.70;;;;;;;8.98;38.64;101310.53;5233760;28;20117;-76
2022/03/12 08:49:38;;;;;;;6.28;2.70;;;;;;;9.18;38.55;101313.63;5253504;28;20044;-76
2022/03/12 08:52:08;;;;;;;5.95;3.03;;;;;;;9.10;38.59;101315.50;5252269;28;20052;-77
2022/03/12 08:54:39;;;;;;;7.53;3.00;;;;;;;10.05;37.79;101304.06;5249633;28;20429;-77
2022/03/12 08:57:09;;;;;;;6.18;2.90;;;;;;;9.75;37.20;101307.28;5254016;28;20441;-77
2022/03/12 08:59:39;;;;;;;6.60;2.63;;;;;;;9.30;38.22;101302.97;5246441;28;20033;-77
2022/03/12 09:02:09;;;;;;;4.97;2.85;;;;;;;9.98;38.11;101316.34;5242665;28;20024;-77
2022/03/12 09:04:40;;;;;;;4.65;2.50;;;;;;;10.44;37.86;101308.38;5252191;28;20032;-77
2022/03/12 09:07:10;;;;;;;6.03;3.20;;;;;;;10.68;36.79;101307.81;5246579;28;20522;-77
2022/03/12 09:09:41;;;;;;;9.38;3.38;;;;;;;11.75;35.81;101299.69;5250353;28;20024;-77
2022/03/12 09:12:11;;;;;;;4.28;2.55;;;;;;;11.93;36.13;101290.44;5253108;28;20473;-77
2022/03/12 09:14:41;;;;;;;5.65;2.65;;;;;;;11.68;36.83;101298.16;5251933;28;20020;-77
2022/03/12 09:17:11;;;;;;;6.15;2.92;;;;;;;10.98;36.57;101297.44;5251888;28;20054;-77
2022/03/12 09:19:42;;;;;;;5.20;2.73;;;;;;;10.42;37.49;101307.56;5252271;28;20036;-77
2022/03/12 09:22:12;;;;;;;5.80;2.90;;;;;;;9.32;37.41;101304.66;5251053;28;20271;-77
2022/03/12 09:24:42;;;;;;;6.72;2.70;;;;;;;8.68;38.54;101304.94;5251165;28;20321;-76
2022/03/12 09:27:13;;;;;;;9.63;3.40;;;;;;;8.60;39.30;101304.22;5251206;28;20024;-77
2022/03/12 09:29:43;;;;;;;6.72;3.03;;;;;;;8.16;40.53;101310.06;5252048;28;20060;-76
2022/03/12 09:32:14;;;;;;;7.55;3.08;;;;;;;8.71;40.59;101303.16;5252591;28;20059;-77
2022/03/12 09:34:44;;;;;;;5.72;2.80;;;;;;;8.88;40.39;101298.50;5251914;28;20028;-77
2022/03/12 09:37:15;;;;;;;6.32;3.00;;;;;;;9.30;40.79;101296.00;5234074;28;20383;-78
2022/03/12 09:39:46;;;;;;;8.55;3.20;;;;;;;9.14;40.56;101296.31;5248428;28;20032;-77
2022/03/12 09:42:16;;;;;;;5.82;2.85;;;;;;;8.72;40.09;101310.06;5250999;28;20032;-77
2022/03/12 09:44:47;;;;;;;9.48;2.65;;;;;;;9.18;41.73;101306.66;5251822;28;20041;-77
2022/03/12 09:47:18;;;;;;;9.10;3.20;;;;;;;9.32;41.14;101303.81;5251820;28;20120;-77
2022/03/12 09:49:48;;;;;;;5.72;3.00;;;;;;;9.03;40.55;101303.47;5250365;28;20693;-76
2022/03/12 09:52:19;;;;;;;6.18;3.10;;;;;;;8.51;40.82;101304.34;5248401;28;20028;-77
2022/03/12 09:54:49;;;;;;;5.10;2.80;;;;;;;8.49;40.55;101307.00;5258617;28;20486;-77
2022/03/12 09:57:19;;;;;;;5.28;2.88;;;;;;;8.34;42.04;101299.41;5250036;28;20429;-77
2022/03/12 09:59:51;;;;;;;6.60;2.92;;;;;;;8.92;41.23;101300.16;5249543;28;20430;-77
2022/03/12 10:02:21;;;;;;;6.43;2.92;;;;;;;9.12;41.46;101292.88;5231501;28;20072;-77
2022/03/12 10:04:53;;;;;;;6.97;3.10;;;;;;;9.12;40.98;101284.19;5254932;28;20055;-78
2022/03/12 10:07:23;;;;;;;9.10;3.17;;;;;;;9.12;41.29;101285.06;5249606;28;20098;-78
2022/03/12 10:09:53;;;;;;;5.57;2.70;;;;;;;8.96;40.91;101291.44;5258143;28;20031;-79
2022/03/12 10:12:24;;;;;;;12.27;3.10;;;;;;;9.30;40.14;101277.72;5254005;28;20075;-78
2022/03/12 10:14:54;;;;;;;5.35;2.75;;;;;;;9.46;40.49;101294.81;5256322;28;20020;-78
2022/03/12 10:17:25;;;;;;;5.05;3.00;;;;;;;9.07;41.83;101279.06;5252051;28;20048;-78
2022/03/12 10:19:55;;;;;;;7.95;3.22;;;;;;;9.12;40.09;101279.84;5238176;28;20446;-78
2022/03/12 10:22:25;;;;;;;5.18;2.88;;;;;;;8.97;40.89;101277.50;5233625;28;20048;-78
2022/03/12 10:24:56;;;;;;;6.55;2.83;;;;;;;9.36;39.97;101277.63;5252610;28;20032;-78
2022/03/12 10:27:26;;;;;;;6.00;2.72;;;;;;;9.26;40.06;101277.81;5252746;28;20036;-77
2022/03/12 10:29:56;;;;;;;6.13;2.90;;;;;;;9.19;40.96;101268.41;5232615;28;20044;-78
2022/03/12 10:32:34;;;;;;;6.90;2.97;;;;;;;9.38;39.62;101274.97;5252807;28;20036;-78
2022/03/12 10:35:05;;;;;;;5.28;2.78;;;;;;;9.12;41.00;101282.47;5235852;28;20569;-78
2022/03/12 10:37:35;;;;;;;8.18;2.90;;;;;;;9.07;41.64;101268.63;5251861;28;20062;-78
2022/03/12 10:40:06;;;;;;;6.18;3.10;;;;;;;9.36;41.09;101262.00;5249421;28;20032;-77
2022/03/12 10:42:51;;;;;;;8.35;3.00;;;;;;;9.71;40.32;101269.09;5253461;28;20539;-77
2022/03/12 10:45:28;;;;;;;10.60;3.22;;;;;;;9.34;40.47;101260.28;5256209;28;20047;-77
2022/03/12 10:48:03;;;;;;;7.78;2.92;;;;;;;9.59;41.50;101269.31;5254108;28;20024;-77
2022/03/12 10:50:39;;;;;;;6.93;3.20;;;;;;;9.59;41.83;101259.75;5253088;28;20028;-77
2022/03/12 10:53:11;;;;;;;5.80;3.03;;;;;;;9.75;41.11;101266.38;5252702;28;20536;-77
2022/03/12 10:55:44;;;;;;;5.32;2.80;;;;;;;9.56;41.65;101253.75;5254385;28;20537;-77
2022/03/12 10:58:16;;;;;;;7.45;3.13;;;;;;;9.61;41.58;101257.09;5254862;28;20083;-77
2022/03/12 11:00:53;;;;;;;6.25;2.55;;;;;;;10.07;41.78;101252.66;5254532;28;20048;-77
2022/03/12 11:03:25;;;;;;;4.18;2.75;;;;;;;9.62;40.78;101269.28;5257315;28;20071;-77
2022/03/12 11:05:56;;;;;;;5.85;2.70;;;;;;;9.76;41.32;101262.00;5247982;28;20040;-78
2022/03/12 11:08:29;;;;;;;5.20;2.70;;;;;;;9.57;40.39;101250.25;5254432;28;20044;-77
2022/03/12 11:11:11;;;;;;;7.47;2.70;;;;;;;9.86;42.26;101256.56;5248078;28;20055;-77
2022/03/12 11:13:46;;;;;;;4.93;2.60;;;;;;;9.73;40.33;101246.41;5254229;28;20119;-77
2022/03/12 11:16:20;;;;;;;5.35;2.80;;;;;;;10.21;40.64;101258.41;5253521;28;20779;-77
2022/03/12 11:18:50;;;;;;;8.02;2.90;;;;;;;10.30;40.65;101251.22;5252960;28;20052;-77
2022/03/12 11:21:26;;;;;;;6.17;3.10;;;;;;;10.03;39.37;101246.63;5258660;28;20031;-77
2022/03/12 11:23:58;;;;;;;6.63;2.90;;;;;;;10.15;40.14;101245.50;5248597;28;20945;-77
2022/03/12 11:26:28;;;;;;;7.72;3.08;;;;;;;10.29;39.88;101240.78;5255694;28;20024;-77
2022/03/12 11:28:59;;;;;;;5.03;2.70;;;;;;;10.26;40.16;101238.25;5252044;28;20517;-77
2022/03/12 11:32:04;;;;;;;9.57;2.55;;;;;;;9.98;39.47;101226.72;5255671;28;20028;-78
2022/03/12 11:34:38;;;;;;;6.30;2.30;;;;;;;10.17;40.58;101236.72;5244509;28;20228;-77
2022/03/12 11:37:17;;;;;;;7.00;3.00;;;;;;;10.13;40.17;101237.69;5248805;28;20036;-77
2022/03/12 11:39:52;;;;;;;5.32;2.60;;;;;;;10.23;40.49;101230.50;5230508;28;20059;-77
2022/03/12 11:42:24;;;;;;;10.65;2.80;;;;;;;10.34;40.95;101223.28;5250245;28;20050;-77
2022/03/12 11:44:57;;;;;;;4.82;2.83;;;;;;;10.32;39.78;101222.47;5262763;28;20027;-77
2022/03/12 11:47:30;;;;;;;5.22;2.75;;;;;;;10.79;40.15;101225.59;5253272;28;20024;-77
2022/03/12 11:50:03;;;;;;;4.95;2.60;;;;;;;10.85;39.96;101219.34;5254333;28;20085;-77
2022/03/12 11:52:35;;;;;;;6.65;3.20;;;;;;;10.92;40.10;101205.19;5251171;28;20028;-78